Westgard — PDBQ — position and weather

sailwx.info

Track history (hours):
 
Tides and Currents Weather Stations Pressure Air Temp Water Temp Dewpoint Dewpoint Depression Visibility Wind Speed Wind Dir Waves Ship Positions

Westgard

Last reported at 2016-May-28 01:29 UTC. Time now 2016-May-28 04:07 UTC.
Position N 54°13' E 009°36'.

Length 89 m; draft 5.4 m.

Type: Ship. MMSI: 246457000.

Date/timePositionNaut miles runAvg speedWind from/ knotsBaromVisibWave heightAir tempDewpointWater temp
2016-May-28 01:29N 54°13' E 009°36'10 8.3
2016-May-28 00:15N 54°08' E 009°20'6 8.0
2016-May-27 23:32N 54°03' E 009°18'0 0.3
2016-May-27 22:31N 54°02' E 009°18'6 6.3
2016-May-27 21:33N 53°57' E 009°14'5 5.0
2016-May-27 20:34N 53°53' E 009°08'6 6.4
2016-May-27 19:33N 53°51' E 008°58'8 7.5
2016-May-27 18:33N 53°51' E 008°45'8 8.3
2016-May-27 17:33N 53°57' E 008°37'9 8.8
2016-May-27 16:33N 53°59' E 008°22'9 8.6
2016-May-27 15:33N 53°59' E 008°07'1110.7
2016-May-27 14:33N 53°56' E 007°50'1111.4
2016-May-27 13:33N 53°54' E 007°31'1211.7
2016-May-27 12:33N 53°51' E 007°12'1212.2
2016-May-27 11:33N 53°48' E 006°51'1212.2
2016-May-27 10:33N 53°45' E 006°32'1211.9
2016-May-27 09:33N 53°42' E 006°12'1211.5
2016-May-27 08:33N 53°38' E 005°54'1111.1
2016-May-27 07:33N 53°35' E 005°36'1110.6
2016-May-27 06:33N 53°31' E 005°19'1110.4
2016-May-27 05:31N 53°28' E 005°02'28 8.5
2016-May-27 02:12N 53°08' E 004°29'6 9.0
2016-May-27 01:32N 53°02' E 004°25'10 9.3
2016-May-27 00:30N 52°54' E 004°17'28 9.3
2016-May-26 21:29N 52°30' E 003°51'1010.3
2016-May-26 20:29N 52°22' E 003°42'1011.0
2016-May-26 19:32N 52°12' E 003°34'1110.8
2016-May-26 18:32N 52°03' E 003°25'1211.5
2016-May-26 17:28N 51°52' E 003°18'10 9.9
2016-May-26 16:26N 51°41' E 003°18'910.6
2016-May-26 15:33N 51°33' E 003°25'9 9.0
2016-May-26 14:33N 51°26' E 003°34'6 5.8
2016-May-26 13:33N 51°27' E 003°44'0 0.0
2016-May-26 12:30N 51°27' E 003°44'0 0.0
2016-May-26 11:30N 51°27' E 003°44'0 0.0
2016-May-26 10:33N 51°27' E 003°44'0 0.0
2016-May-26 09:30N 51°27' E 003°44'0 0.0
2016-May-26 08:33N 51°27' E 003°44'0 0.0
2016-May-26 07:30N 51°27' E 003°44'0 0.0
2016-May-26 06:30N 51°27' E 003°44'0 0.0
2016-May-26 05:30N 51°27' E 003°44'0 0.0
2016-May-26 04:30N 51°27' E 003°44'0 0.0
2016-May-26 03:29N 51°27' E 003°44'0 0.0
2016-May-26 02:32N 51°27' E 003°44'0 0.0
2016-May-26 01:32N 51°27' E 003°44'0 0.0
2016-May-26 00:29N 51°27' E 003°44'0 0.0
2016-May-25 23:29N 51°27' E 003°44'0 0.0
2016-May-25 22:32N 51°27' E 003°44'0 0.0
2016-May-25 21:29N 51°27' E 003°44'0 0.0
2016-May-25 20:32N 51°27' E 003°44'0 0.0
2016-May-25 19:32N 51°27' E 003°44'5 5.0
2016-May-25 18:34N 51°26' E 003°36'1010.0
2016-May-25 17:33N 51°24' E 003°20'1212.1
2016-May-25 16:33N 51°22' E 003°01'1211.3
2016-May-25 15:32N 51°22' E 002°43'6 3.9
2016-May-25 14:07N 51°19' E 002°35'0 0.0
2016-May-25 11:10N 51°19' E 002°34'0 0.0
2016-May-25 07:16N 51°19' E 002°34'0 0.0
2016-May-25 06:25N 51°19' E 002°34'0 0.1
2016-May-25 04:28N 51°20' E 002°35'0 0.0
2016-May-25 02:22N 51°19' E 002°35'0 0.1
2016-May-25 00:31N 51°19' E 002°35'0 0.0
2016-May-24 21:18N 51°19' E 002°34'0 0.0
2016-May-24 19:06N 51°19' E 002°34'0 0.0
2016-May-24 18:27N 51°19' E 002°34'0 0.0
2016-May-24 17:21N 51°19' E 002°34'2 0.3
2016-May-24 11:05N 51°20' E 002°37'2 2.8
2016-May-24 10:27N 51°21' E 002°35'3 3.1
2016-May-24 09:29N 51°22' E 002°30'3 2.3
2016-May-24 08:13N 51°20' E 002°26'2 2.5
2016-May-24 07:22N 51°20' E 002°23'3 3.3
2016-May-24 06:27N 51°18' E 002°18'3 3.6
2016-May-24 05:32N 51°16' E 002°14'4 3.9
2016-May-24 04:33N 51°14' E 002°09'4 4.0
2016-May-24 03:33N 51°12' E 002°04'4 4.3
2016-May-24 02:33N 51°10' E 001°58'7 7.0
2016-May-24 01:33N 51°06' E 001°48'8 8.0
2016-May-24 00:33N 51°00' E 001°40'57 6.3
2016-May-23 15:33N 50°26' E 000°28'9 9.4
2016-May-23 14:34N 50°23' E 000°14'10 9.6
2016-May-23 13:33N 50°21' W 000°00'10 9.7
2016-May-23 12:33N 50°18' W 000°15'1010.4
2016-May-23 11:33N 50°15' W 000°31'1211.7
2016-May-23 10:33N 50°12' W 000°48'3013.1
2016-May-23 08:14N 50°03' W 001°33'5410.8
2016-May-23 03:11N 49°46' W 002°54'101 9.5
2016-May-22 16:33N 48°56' W 005°09'54 8.4
2016-May-22 10:08N 48°02' W 005°12'6 9.6
2016-May-22 09:33N 47°59' W 005°05'9 9.4
2016-May-22 08:33N 47°52' W 004°55'48 9.4
2016-May-22 03:28N 47°24' W 003°59'9 9.5
2016-May-22 02:33N 47°19' W 003°48'9 9.3
2016-May-22 01:33N 47°13' W 003°37'9 9.1
2016-May-22 00:34N 47°08' W 003°26'9 9.3
2016-May-21 23:33N 47°02' W 003°15'9 9.4
2016-May-21 22:33N 46°56' W 003°05'2110.6
2016-May-21 20:33N 46°43' W 002°41'1110.9
2016-May-21 19:33N 46°36' W 002°29'1110.6
2016-May-21 18:33N 46°29' W 002°16'1010.4
2016-May-21 17:33N 46°23' W 002°04'1010.4
2016-May-21 16:33N 46°18' W 001°51'1010.3
2016-May-21 15:32N 46°12' W 001°39'1010.5
2016-May-21 14:33N 46°08' W 001°25'8 8.2
2016-May-21 13:33N 46°10' W 001°13'0 0.3
2016-May-21 12:32N 46°10' W 001°13'0 0.0
2016-May-21 11:32N 46°10' W 001°13'0 0.0
2016-May-21 10:32N 46°10' W 001°13'0 0.0
2016-May-21 09:32N 46°10' W 001°13'0 0.0
2016-May-21 08:32N 46°10' W 001°13'0 0.0
2016-May-21 07:32N 46°10' W 001°13'0 0.0
2016-May-21 06:32N 46°10' W 001°13'0 0.0
2016-May-21 05:32N 46°10' W 001°13'0 0.0
2016-May-21 04:32N 46°10' W 001°13'0 0.0
2016-May-21 03:29N 46°10' W 001°13'0 0.0
2016-May-21 02:32N 46°10' W 001°13'0 0.0
2016-May-21 01:32N 46°10' W 001°13'0 0.0
2016-May-21 00:32N 46°10' W 001°13'0 0.0
2016-May-20 23:29N 46°10' W 001°13'0 0.0
2016-May-20 22:32N 46°10' W 001°13'0 0.0
2016-May-20 21:32N 46°10' W 001°13'0 0.0
2016-May-20 20:32N 46°10' W 001°13'0 0.0
2016-May-20 19:32N 46°10' W 001°13'0 0.0
2016-May-20 18:32N 46°10' W 001°13'0 0.0
2016-May-20 17:32N 46°10' W 001°13'0 0.0
2016-May-20 16:32N 46°10' W 001°13'0 0.1
2016-May-20 15:33N 46°10' W 001°13'20 9.4
2016-May-20 13:28N 46°12' W 001°41'1112.0
2016-May-20 12:33N 46°18' W 001°54'1212.0
2016-May-20 11:33N 46°26' W 002°08'4811.8
2016-May-20 07:30N 46°54' W 003°04'1111.4
2016-May-20 06:33N 47°01' W 003°17'2311.4
2016-May-20 04:32N 47°15' W 003°44'145 6.5
2016-May-19 06:26N 49°39' W 003°41'8 8.7
2016-May-19 05:34N 49°43' W 003°31'8 8.2
2016-May-19 04:34N 49°47' W 003°20'9 8.5
2016-May-19 03:31N 49°52' W 003°08'9 9.5
2016-May-19 02:33N 49°57' W 002°56'107 9.7
2016-May-18 15:31N 50°29' W 000°16'1010.7
2016-May-18 14:33N 50°32' W 000°01'1111.3
2016-May-18 13:34N 50°35' E 000°16'43 9.9
2016-May-18 09:16N 50°57' E 001°14'6 8.7
2016-May-18 08:34N 51°01' E 001°21'9 9.4
2016-May-18 07:33N 51°07' E 001°33'1111.0
2016-May-18 06:33N 51°14' E 001°46'1212.1
2016-May-18 05:33N 51°23' E 001°58'1110.7
2016-May-18 04:34N 51°21' E 002°15'2211.0
2016-May-18 02:34N 51°22' E 002°50'  
Track history (hours):
 
Tides and Currents Weather Stations Pressure Air Temp Water Temp Dewpoint Dewpoint Depression Visibility Wind Speed Wind Dir Waves Ship Positions

Westgard

Last reported at 2016-May-28 01:29 UTC. Time now 2016-May-28 04:07 UTC.
Position N 54°13' E 009°36'.

Length 89 m; draft 5.4 m.

Type: Ship. MMSI: 246457000.

Date/timePositionNaut miles runAvg speedWind from/ knotsBaromVisibWave heightAir tempDewpointWater temp
2016-May-28 01:29N 54°13' E 009°36'10 8.3
2016-May-28 00:15N 54°08' E 009°20'6 8.0
2016-May-27 23:32N 54°03' E 009°18'0 0.3
2016-May-27 22:31N 54°02' E 009°18'6 6.3
2016-May-27 21:33N 53°57' E 009°14'5 5.0
2016-May-27 20:34N 53°53' E 009°08'6 6.4
2016-May-27 19:33N 53°51' E 008°58'8 7.5
2016-May-27 18:33N 53°51' E 008°45'8 8.3
2016-May-27 17:33N 53°57' E 008°37'9 8.8
2016-May-27 16:33N 53°59' E 008°22'9 8.6
2016-May-27 15:33N 53°59' E 008°07'1110.7
2016-May-27 14:33N 53°56' E 007°50'1111.4
2016-May-27 13:33N 53°54' E 007°31'1211.7
2016-May-27 12:33N 53°51' E 007°12'1212.2
2016-May-27 11:33N 53°48' E 006°51'1212.2
2016-May-27 10:33N 53°45' E 006°32'1211.9
2016-May-27 09:33N 53°42' E 006°12'1211.5
2016-May-27 08:33N 53°38' E 005°54'1111.1
2016-May-27 07:33N 53°35' E 005°36'1110.6
2016-May-27 06:33N 53°31' E 005°19'1110.4
2016-May-27 05:31N 53°28' E 005°02'28 8.5
2016-May-27 02:12N 53°08' E 004°29'6 9.0
2016-May-27 01:32N 53°02' E 004°25'10 9.3
2016-May-27 00:30N 52°54' E 004°17'28 9.3
2016-May-26 21:29N 52°30' E 003°51'1010.3
2016-May-26 20:29N 52°22' E 003°42'1011.0
2016-May-26 19:32N 52°12' E 003°34'1110.8
2016-May-26 18:32N 52°03' E 003°25'1211.5
2016-May-26 17:28N 51°52' E 003°18'10 9.9
2016-May-26 16:26N 51°41' E 003°18'910.6
2016-May-26 15:33N 51°33' E 003°25'9 9.0
2016-May-26 14:33N 51°26' E 003°34'6 5.8
2016-May-26 13:33N 51°27' E 003°44'0 0.0
2016-May-26 12:30N 51°27' E 003°44'0 0.0
2016-May-26 11:30N 51°27' E 003°44'0 0.0
2016-May-26 10:33N 51°27' E 003°44'0 0.0
2016-May-26 09:30N 51°27' E 003°44'0 0.0
2016-May-26 08:33N 51°27' E 003°44'0 0.0
2016-May-26 07:30N 51°27' E 003°44'0 0.0
2016-May-26 06:30N 51°27' E 003°44'0 0.0
2016-May-26 05:30N 51°27' E 003°44'0 0.0
2016-May-26 04:30N 51°27' E 003°44'0 0.0
2016-May-26 03:29N 51°27' E 003°44'0 0.0
2016-May-26 02:32N 51°27' E 003°44'0 0.0
2016-May-26 01:32N 51°27' E 003°44'0 0.0
2016-May-26 00:29N 51°27' E 003°44'0 0.0
2016-May-25 23:29N 51°27' E 003°44'0 0.0
2016-May-25 22:32N 51°27' E 003°44'0 0.0
2016-May-25 21:29N 51°27' E 003°44'0 0.0
2016-May-25 20:32N 51°27' E 003°44'0 0.0
2016-May-25 19:32N 51°27' E 003°44'5 5.0
2016-May-25 18:34N 51°26' E 003°36'1010.0
2016-May-25 17:33N 51°24' E 003°20'1212.1
2016-May-25 16:33N 51°22' E 003°01'1211.3
2016-May-25 15:32N 51°22' E 002°43'6 3.9
2016-May-25 14:07N 51°19' E 002°35'0 0.0
2016-May-25 11:10N 51°19' E 002°34'0 0.0
2016-May-25 07:16N 51°19' E 002°34'0 0.0
2016-May-25 06:25N 51°19' E 002°34'0 0.1
2016-May-25 04:28N 51°20' E 002°35'0 0.0
2016-May-25 02:22N 51°19' E 002°35'0 0.1
2016-May-25 00:31N 51°19' E 002°35'0 0.0
2016-May-24 21:18N 51°19' E 002°34'0 0.0
2016-May-24 19:06N 51°19' E 002°34'0 0.0
2016-May-24 18:27N 51°19' E 002°34'0 0.0
2016-May-24 17:21N 51°19' E 002°34'2 0.3
2016-May-24 11:05N 51°20' E 002°37'2 2.8
2016-May-24 10:27N 51°21' E 002°35'3 3.1
2016-May-24 09:29N 51°22' E 002°30'3 2.3
2016-May-24 08:13N 51°20' E 002°26'2 2.5
2016-May-24 07:22N 51°20' E 002°23'3 3.3
2016-May-24 06:27N 51°18' E 002°18'3 3.6
2016-May-24 05:32N 51°16' E 002°14'4 3.9
2016-May-24 04:33N 51°14' E 002°09'4 4.0
2016-May-24 03:33N 51°12' E 002°04'4 4.3
2016-May-24 02:33N 51°10' E 001°58'7 7.0
2016-May-24 01:33N 51°06' E 001°48'8 8.0
2016-May-24 00:33N 51°00' E 001°40'57 6.3
2016-May-23 15:33N 50°26' E 000°28'9 9.4
2016-May-23 14:34N 50°23' E 000°14'10 9.6
2016-May-23 13:33N 50°21' W 000°00'10 9.7
2016-May-23 12:33N 50°18' W 000°15'1010.4
2016-May-23 11:33N 50°15' W 000°31'1211.7
2016-May-23 10:33N 50°12' W 000°48'3013.1
2016-May-23 08:14N 50°03' W 001°33'5410.8
2016-May-23 03:11N 49°46' W 002°54'101 9.5
2016-May-22 16:33N 48°56' W 005°09'54 8.4
2016-May-22 10:08N 48°02' W 005°12'6 9.6
2016-May-22 09:33N 47°59' W 005°05'9 9.4
2016-May-22 08:33N 47°52' W 004°55'48 9.4
2016-May-22 03:28N 47°24' W 003°59'9 9.5
2016-May-22 02:33N 47°19' W 003°48'9 9.3
2016-May-22 01:33N 47°13' W 003°37'9 9.1
2016-May-22 00:34N 47°08' W 003°26'9 9.3
2016-May-21 23:33N 47°02' W 003°15'9 9.4
2016-May-21 22:33N 46°56' W 003°05'2110.6
2016-May-21 20:33N 46°43' W 002°41'1110.9
2016-May-21 19:33N 46°36' W 002°29'1110.6
2016-May-21 18:33N 46°29' W 002°16'1010.4
2016-May-21 17:33N 46°23' W 002°04'1010.4
2016-May-21 16:33N 46°18' W 001°51'1010.3
2016-May-21 15:32N 46°12' W 001°39'1010.5
2016-May-21 14:33N 46°08' W 001°25'8 8.2
2016-May-21 13:33N 46°10' W 001°13'0 0.3
2016-May-21 12:32N 46°10' W 001°13'0 0.0
2016-May-21 11:32N 46°10' W 001°13'0 0.0
2016-May-21 10:32N 46°10' W 001°13'0 0.0
2016-May-21 09:32N 46°10' W 001°13'0 0.0
2016-May-21 08:32N 46°10' W 001°13'0 0.0
2016-May-21 07:32N 46°10' W 001°13'0 0.0
2016-May-21 06:32N 46°10' W 001°13'0 0.0
2016-May-21 05:32N 46°10' W 001°13'0 0.0
2016-May-21 04:32N 46°10' W 001°13'0 0.0
2016-May-21 03:29N 46°10' W 001°13'0 0.0
2016-May-21 02:32N 46°10' W 001°13'0 0.0
2016-May-21 01:32N 46°10' W 001°13'0 0.0
2016-May-21 00:32N 46°10' W 001°13'0 0.0
2016-May-20 23:29N 46°10' W 001°13'0 0.0
2016-May-20 22:32N 46°10' W 001°13'0 0.0
2016-May-20 21:32N 46°10' W 001°13'0 0.0
2016-May-20 20:32N 46°10' W 001°13'0 0.0
2016-May-20 19:32N 46°10' W 001°13'0 0.0
2016-May-20 18:32N 46°10' W 001°13'0 0.0
2016-May-20 17:32N 46°10' W 001°13'0 0.0
2016-May-20 16:32N 46°10' W 001°13'0 0.1
2016-May-20 15:33N 46°10' W 001°13'20 9.4
2016-May-20 13:28N 46°12' W 001°41'1112.0
2016-May-20 12:33N 46°18' W 001°54'1212.0
2016-May-20 11:33N 46°26' W 002°08'4811.8
2016-May-20 07:30N 46°54' W 003°04'1111.4
2016-May-20 06:33N 47°01' W 003°17'2311.4
2016-May-20 04:32N 47°15' W 003°44'145 6.5
2016-May-19 06:26N 49°39' W 003°41'8 8.7
2016-May-19 05:34N 49°43' W 003°31'8 8.2
2016-May-19 04:34N 49°47' W 003°20'9 8.5
2016-May-19 03:31N 49°52' W 003°08'9 9.5
2016-May-19 02:33N 49°57' W 002°56'107 9.7
2016-May-18 15:31N 50°29' W 000°16'1010.7
2016-May-18 14:33N 50°32' W 000°01'1111.3
2016-May-18 13:34N 50°35' E 000°16'43 9.9
2016-May-18 09:16N 50°57' E 001°14'6 8.7
2016-May-18 08:34N 51°01' E 001°21'9 9.4
2016-May-18 07:33N 51°07' E 001°33'1111.0
2016-May-18 06:33N 51°14' E 001°46'1212.1
2016-May-18 05:33N 51°23' E 001°58'1110.7
2016-May-18 04:34N 51°21' E 002°15'2211.0
2016-May-18 02:34N 51°22' E 002°50'  

Dump ship's entire track history